Shawnee, OK

12:08 AM CST on January 18, 2017 (GMT -0600)
Shawnee Municipal | | Change Station

Elev 1073 ft 35.36 °N, 96.94 °W | Updated 13 minutes ago

Mostly Cloudy
Mostly Cloudy
44 °F
Feels Like 44 °F
N
0
Wind Variable Wind from North

Today
High -- | Low -- °F
--% Chance of Precip.
Yesterday
High -- | Low -- °F
Precip. -- in
Pressure 30.13 in
Visibility 10.0 miles
Clouds Mostly Cloudy 11000 ft
Dew Point 39 °F
Humidity 85%
Rainfall 0.00 in
Snow Depth Not available.
7:35 AM 5:41 PM
Waning Gibbous, 66% visible
METAR KSNL 180555Z AUTO 00000KT 10SM BKN110 07/04 A3013 RMK AO2 T00650041 10095 20065 401250007
Pressure 30.13 in
Visibility 10.0 miles
Clouds Mostly Cloudy 11000 ft
Dew Point 39 °F
Humidity 85%
Rainfall 0.00 in
Snow Depth Not available.
7:35 AM 5:41 PM
Waning Gibbous, 66% visible
METAR KSNL 180555Z AUTO 00000KT 10SM BKN110 07/04 A3013 RMK AO2 T00650041 10095 20065 401250007

Get Your Daily Forecast Email!

Thanks for signing up!

Be on the lookout for a verification email in your inbox.

You'll start receiving the daily forecast at 8 AM.

×

10-Day Weather Forecast

Almanac

Astronomy

Jan. 18, 2017 Rise Set
Actual Time
Civil Twilight
Nautical Twilight
Astronomical Twilight
Moon
Length of Visible Light
Length of Day
Tomorrow will be .
, % of the Moon is Illuminated

Today's Extremes

State Highs State Lows

Community

WunderPhotos

Upload Photos

1,962,540 photos uploaded!

WunderBlog® & News

Nearby

Air Quality

  Air Quality AQ Index Pollutant
Not available.

Snow Depth

Station Depth Elevation

Earthquake Activity

City Distance Mag. Time & Date
Minimum magnitude displayed is 2.5.

Coastal Water Temperatures

Place Temperature

Stations

Nearby Weather Stations

Station Location Temp. Windchill Dew Point Humidity Wind Precip. Elev Updated Type
                   

Watches & Warnings

There are currently no watches in effect.